Time;durP1;ratioP1;P1;durP2;ratioP2;P2;SDS_P1;SDS_P2;PMS_P1;PMS_P2;Temp;Humidity;BMP_temperature;BMP_pressure;BME280_temperature;BME280_humidity;BME280_pressure;Samples;Min_cycle;Max_cycle;Signal;HPM_P1;HPM_P2
2023/06/10 00:01:24;;;;;;;7.22;6.50;;;;;;;23.10;46.48;99871.56;10296147;28;20073;-63
2023/06/10 00:06:28;;;;;;;7.22;6.43;;;;;;;23.00;47.04;99875.72;10300801;28;20576;-64
2023/06/10 00:11:33;;;;;;;6.95;5.90;;;;;;;22.94;46.94;99864.69;10310740;28;20052;-65
2023/06/10 00:16:35;;;;;;;7.22;6.63;;;;;;;22.82;47.23;99876.41;10284095;28;20127;-64
2023/06/10 00:21:40;;;;;;;6.82;6.10;;;;;;;22.81;47.30;99870.16;10297270;28;20242;-64
2023/06/10 00:26:41;;;;;;;7.35;6.63;;;;;;;22.80;46.79;99868.50;10311757;28;20697;-64
2023/06/10 00:31:45;;;;;;;6.43;5.93;;;;;;;22.78;47.34;99870.59;10291336;28;20050;-64
2023/06/10 00:36:46;;;;;;;;;;;;;;;22.73;47.15;99867.69;10313293;28;20132;-64
2023/06/10 00:41:48;;;;;;;6.15;5.65;;;;;;;22.68;46.81;99864.78;10308409;28;20429;-64
2023/06/10 00:46:51;;;;;;;7.50;6.40;;;;;;;22.67;46.79;99863.94;10309106;28;20877;-64
2023/06/10 00:51:53;;;;;;;7.50;6.82;;;;;;;22.65;47.14;99862.50;10292840;28;20481;-64
2023/06/10 00:56:55;;;;;;;6.78;5.97;;;;;;;22.59;47.00;99856.88;10293664;28;20208;-64
2023/06/10 01:01:57;;;;;;;7.43;6.47;;;;;;;22.53;47.26;99867.72;10308176;28;20062;-64
2023/06/10 01:07:19;;;;;;;7.55;6.28;;;;;;;22.56;47.26;99872.72;10290455;28;20046;-63
2023/06/10 01:12:39;;;;;;;6.22;5.63;;;;;;;22.49;46.96;99867.31;10309681;28;20125;-64
2023/06/10 01:17:58;;;;;;;6.57;5.88;;;;;;;22.48;47.13;99870.25;10306990;28;20052;-65
2023/06/10 01:23:02;;;;;;;7.10;6.50;;;;;;;22.42;47.10;99867.31;10304464;28;20042;-64
2023/06/10 01:28:10;;;;;;;9.52;5.82;;;;;;;22.40;47.11;99876.72;10303706;28;20058;-64
2023/06/10 01:33:14;;;;;;;7.00;6.30;;;;;;;22.35;47.02;99879.22;10309553;28;20053;-64
2023/06/10 01:38:17;;;;;;;8.05;6.88;;;;;;;22.29;47.05;99875.44;10281768;28;20046;-64
2023/06/10 01:43:20;;;;;;;6.50;6.00;;;;;;;22.24;47.12;99881.47;10307391;28;20053;-63
2023/06/10 01:48:22;;;;;;;6.43;5.82;;;;;;;22.22;47.19;99882.75;10291199;28;21398;-64
2023/06/10 01:53:23;;;;;;;7.60;6.85;;;;;;;22.19;47.20;99873.16;10267571;28;20125;-64
2023/06/10 01:58:25;;;;;;;7.45;6.70;;;;;;;22.16;47.30;99873.56;10302671;28;20072;-64
2023/06/10 02:03:26;;;;;;;7.63;6.72;;;;;;;22.13;47.38;99873.16;10308551;28;20045;-64
2023/06/10 02:08:28;;;;;;;8.80;6.65;;;;;;;22.10;47.51;99881.69;10305034;28;20062;-64
2023/06/10 02:13:30;;;;;;;6.28;5.75;;;;;;;22.03;47.55;99879.00;10310978;28;20414;-64
2023/06/10 02:18:33;;;;;;;6.47;5.88;;;;;;;22.01;47.38;99878.38;10293908;28;25460;-64
2023/06/10 02:23:35;;;;;;;6.65;6.03;;;;;;;21.94;47.38;99874.81;10297568;28;20073;-64
2023/06/10 02:28:36;;;;;;;6.22;5.70;;;;;;;21.91;47.61;99875.25;10305663;28;20179;-64
2023/06/10 02:33:40;;;;;;;6.50;6.00;;;;;;;21.88;47.38;99881.91;10302654;28;20060;-63
2023/06/10 02:38:42;;;;;;;6.57;5.97;;;;;;;21.83;47.42;99885.22;10280254;28;20133;-63
2023/06/10 02:43:43;;;;;;;6.68;6.18;;;;;;;21.77;47.19;99886.06;10287704;28;20132;-64
2023/06/10 02:48:46;;;;;;;7.18;5.97;;;;;;;21.70;47.68;99891.44;10304056;28;20137;-63
2023/06/10 02:53:47;;;;;;;6.40;5.87;;;;;;;21.65;47.88;99883.13;10291006;28;20053;-64
2023/06/10 02:58:51;;;;;;;7.88;7.18;;;;;;;21.66;47.94;99897.47;10301478;28;20167;-64
2023/06/10 03:03:53;;;;;;;6.65;6.05;;;;;;;21.56;48.24;99889.75;10304661;28;20188;-63
2023/06/10 03:08:54;;;;;;;6.80;6.20;;;;;;;21.56;48.73;99895.19;10293222;28;20046;-64
2023/06/10 03:13:57;;;;;;;7.00;6.20;;;;;;;21.49;48.90;99888.88;10305514;28;20549;-64
2023/06/10 03:18:58;;;;;;;7.03;6.32;;;;;;;21.47;48.85;99897.19;10306954;28;20168;-63
2023/06/10 03:24:00;;;;;;;7.10;6.38;;;;;;;21.43;49.03;99901.34;10306850;28;20057;-62
2023/06/10 03:29:02;;;;;;;6.70;6.10;;;;;;;21.39;49.06;99904.66;10303233;28;20057;-64
2023/06/10 03:34:04;;;;;;;7.07;6.38;;;;;;;21.33;48.52;99901.75;10300211;28;20091;-63
2023/06/10 03:39:05;;;;;;;7.00;6.40;;;;;;;21.34;48.79;99913.41;10288897;28;20640;-63
2023/06/10 03:44:07;;;;;;;7.10;6.50;;;;;;;21.33;48.44;99906.31;10305650;28;20664;-64
2023/06/10 03:49:09;;;;;;;5.82;5.35;;;;;;;21.28;48.27;99919.63;10299677;28;20782;-63
2023/06/10 03:54:11;;;;;;;5.70;5.28;;;;;;;21.24;48.13;99915.66;10305618;28;20054;-63
2023/06/10 03:59:12;;;;;;;5.28;4.78;;;;;;;21.17;48.16;99919.16;10307815;28;20050;-63
2023/06/10 04:04:16;;;;;;;5.90;5.20;;;;;;;21.22;48.21;99920.44;10294728;28;20058;-65
2023/06/10 04:09:17;;;;;;;6.40;5.80;;;;;;;21.21;47.87;99925.00;10308553;28;20047;-63
2023/06/10 04:14:19;;;;;;;7.07;5.75;;;;;;;21.26;47.82;99925.25;10312594;28;20059;-63
2023/06/10 04:19:21;;;;;;;6.13;5.53;;;;;;;21.28;47.75;99925.03;10315236;28;20046;-63
2023/06/10 04:24:22;;;;;;;6.50;5.97;;;;;;;21.26;48.14;99932.50;10293881;28;20054;-62
2023/06/10 04:29:24;;;;;;;6.68;5.65;;;;;;;21.23;47.77;99936.47;10292785;28;20733;-63
2023/06/10 04:34:26;;;;;;;7.40;6.15;;;;;;;21.24;47.93;99924.59;10317210;28;20053;-62
2023/06/10 04:39:29;;;;;;;7.95;5.53;;;;;;;21.29;47.97;99932.94;10311536;28;20050;-63
2023/06/10 04:44:30;;;;;;;5.60;5.18;;;;;;;21.30;48.08;99933.78;10315459;28;20418;-62
2023/06/10 04:49:33;;;;;;;7.22;5.95;;;;;;;21.28;47.91;99933.16;10313945;28;20053;-62
2023/06/10 04:54:34;;;;;;;5.43;5.03;;;;;;;21.29;47.68;99938.38;10295764;28;20053;-62
2023/06/10 04:59:37;;;;;;;7.38;5.72;;;;;;;21.28;48.17;99925.88;10315555;28;20046;-62
2023/06/10 05:04:39;;;;;;;5.97;5.20;;;;;;;21.31;48.16;99928.16;10297343;28;20049;-63
2023/06/10 05:09:40;;;;;;;6.18;5.07;;;;;;;21.35;48.23;99924.03;10280106;28;20092;-63
2023/06/10 05:14:42;;;;;;;7.68;5.90;;;;;;;21.43;47.94;99930.31;10303072;28;20050;-62
2023/06/10 05:19:44;;;;;;;6.03;5.38;;;;;;;21.45;48.13;99931.78;10309872;28;20439;-62
2023/06/10 05:24:47;;;;;;;5.55;5.05;;;;;;;21.52;48.02;99937.25;10301441;28;20088;-63
2023/06/10 05:29:48;;;;;;;5.50;5.00;;;;;;;21.60;47.84;99947.06;10302283;28;20067;-62
2023/06/10 05:34:51;;;;;;;5.35;4.85;;;;;;;21.64;47.64;99946.44;10306259;28;20305;-63
2023/06/10 05:39:53;;;;;;;5.38;4.88;;;;;;;21.67;47.63;99942.50;10307364;28;20477;-62
2023/06/10 05:44:54;;;;;;;6.38;5.78;;;;;;;21.78;47.53;99943.75;10308914;28;20069;-63
2023/06/10 05:49:56;;;;;;;5.88;5.28;;;;;;;21.81;47.38;99952.34;10311007;28;20148;-63
2023/06/10 05:54:59;;;;;;;5.55;5.15;;;;;;;21.83;47.46;99949.44;10307549;28;20112;-63
2023/06/10 06:00:00;;;;;;;5.85;5.25;;;;;;;21.86;47.22;99951.72;10309694;28;20061;-63
2023/06/10 06:05:02;;;;;;;6.70;5.35;;;;;;;21.96;47.35;99954.03;10303027;28;20056;-61
2023/06/10 06:10:05;;;;;;;5.50;5.00;;;;;;;22.07;47.37;99950.72;10299582;28;20049;-62
2023/06/10 06:15:08;;;;;;;6.03;5.20;;;;;;;22.22;47.08;99948.63;10291518;28;20061;-61
2023/06/10 06:20:10;;;;;;;6.05;5.40;;;;;;;22.30;47.30;99946.78;10300530;28;20062;-61
2023/06/10 06:25:12;;;;;;;5.75;4.82;;;;;;;22.39;47.11;99942.84;10299925;28;20633;-61
2023/06/10 06:30:14;;;;;;;7.07;5.65;;;;;;;22.49;47.42;99940.53;10300815;28;20053;-61
2023/06/10 06:35:16;;;;;;;5.70;5.20;;;;;;;22.67;46.84;99949.91;10280070;28;20286;-62
2023/06/10 06:40:18;;;;;;;5.30;4.80;;;;;;;22.75;46.86;99955.13;10278441;28;20228;-62
2023/06/10 06:45:20;;;;;;;5.95;5.45;;;;;;;22.87;46.74;99958.84;10299771;28;20526;-62
2023/06/10 06:50:22;;;;;;;6.35;5.82;;;;;;;23.00;46.67;99966.16;10271182;28;20119;-63
2023/06/10 06:55:23;;;;;;;6.28;5.68;;;;;;;23.16;46.05;99959.44;10283003;28;20160;-62
2023/06/10 07:00:25;;;;;;;7.72;5.40;;;;;;;23.20;45.83;99968.84;10298701;28;20132;-62
2023/06/10 07:05:27;;;;;;;5.53;5.00;;;;;;;23.37;46.30;99973.78;10293900;28;21955;-60
2023/06/10 07:10:29;;;;;;;6.03;4.78;;;;;;;23.52;45.33;99963.47;10298099;28;21677;-61
2023/06/10 07:15:30;;;;;;;5.65;5.15;;;;;;;23.68;45.50;99962.16;10280035;28;21259;-61
2023/06/10 07:20:32;;;;;;;5.22;4.72;;;;;;;23.85;45.30;99967.09;10282966;28;20967;-63
2023/06/10 07:25:34;;;;;;;6.10;5.60;;;;;;;24.02;44.07;99968.28;10298414;28;20054;-60
2023/06/10 07:30:37;;;;;;;6.32;4.82;;;;;;;24.14;43.77;99976.53;10298844;28;20856;-60
2023/06/10 07:35:38;;;;;;;5.45;5.00;;;;;;;24.35;43.17;99972.66;10297031;28;20852;-59
2023/06/10 07:40:40;;;;;;;5.80;4.90;;;;;;;24.52;42.89;99973.75;10278097;28;20148;-59
2023/06/10 07:45:43;;;;;;;5.78;5.20;;;;;;;24.66;42.88;99960.06;10303757;28;20061;-60
2023/06/10 07:50:45;;;;;;;8.15;5.53;;;;;;;24.80;42.92;99963.50;10293395;28;20977;-59
2023/06/10 07:55:46;;;;;;;5.82;4.90;;;;;;;24.97;42.64;99966.47;10308649;28;20188;-59
2023/06/10 08:00:48;;;;;;;5.85;5.45;;;;;;;25.14;42.60;99974.88;10301127;28;20057;-60
2023/06/10 08:05:50;;;;;;;6.13;5.45;;;;;;;25.29;41.99;99972.59;10281966;28;20510;-60
2023/06/10 08:10:51;;;;;;;5.75;5.28;;;;;;;25.47;42.75;99968.25;10303068;28;20800;-59
2023/06/10 08:15:55;;;;;;;6.10;5.47;;;;;;;25.69;42.43;99974.88;10294872;28;20154;-60
2023/06/10 08:20:56;;;;;;;;;;;;;;;25.86;42.39;99966.06;10301229;28;20074;-59
2023/06/10 08:25:58;;;;;;;5.05;4.55;;;;;;;25.99;41.95;99957.72;10286269;28;20512;-59
2023/06/10 08:30:59;;;;;;;6.35;5.05;;;;;;;26.09;40.47;99957.13;10304875;28;20067;-59
2023/06/10 08:36:01;;;;;;;6.30;5.30;;;;;;;26.17;41.52;99966.91;10303124;28;20058;-59
2023/06/10 08:41:05;;;;;;;7.43;5.33;;;;;;;26.35;41.42;99964.06;10304269;28;20479;-59
2023/06/10 08:46:08;;;;;;;8.60;5.65;;;;;;;26.52;40.78;99972.41;10302678;28;20058;-59
2023/06/10 08:51:11;;;;;;;6.13;4.40;;;;;;;26.75;39.99;99965.31;10288466;28;20065;-59
2023/06/10 08:56:14;;;;;;;5.00;4.57;;;;;;;26.84;40.02;99957.59;10281547;28;20061;-60
2023/06/10 09:01:16;;;;;;;4.93;4.45;;;;;;;26.90;39.50;99953.91;10285413;28;20247;-59
2023/06/10 09:06:18;;;;;;;5.80;5.30;;;;;;;27.12;39.62;99945.94;10293079;28;20072;-59
2023/06/10 09:11:21;;;;;;;6.47;4.47;;;;;;;27.43;39.41;99941.97;10290239;28;20117;-60
2023/06/10 09:16:27;;;;;;;6.07;4.27;;;;;;;27.63;38.77;99944.25;10300894;28;20058;-60
2023/06/10 09:21:28;;;;;;;7.43;4.93;;;;;;;27.84;38.17;99950.13;10284369;28;20869;-60
2023/06/10 09:26:30;;;;;;;5.20;4.83;;;;;;;27.92;38.28;99940.69;10281037;28;20054;-60
2023/06/10 09:31:35;;;;;;;5.72;4.72;;;;;;;28.15;37.97;99953.44;10297572;28;20046;-59
2023/06/10 09:36:38;;;;;;;6.40;5.15;;;;;;;28.17;37.96;99934.88;10300620;28;20182;-60
2023/06/10 09:41:40;;;;;;;4.97;4.55;;;;;;;28.41;37.58;99935.53;10280679;28;20618;-60
2023/06/10 09:46:44;;;;;;;5.45;4.57;;;;;;;28.60;36.79;99935.28;10262999;28;20058;-61
2023/06/10 09:51:51;;;;;;;5.15;4.30;;;;;;;28.65;36.81;99924.44;10278104;28;20624;-61
2023/06/10 09:56:53;;;;;;;5.15;4.75;;;;;;;28.80;36.76;99916.44;10296055;28;20143;-60
2023/06/10 10:01:55;;;;;;;5.77;4.33;;;;;;;29.02;36.52;99929.31;10285239;28;20675;-60
2023/06/10 10:06:59;;;;;;;;;;;;;;;29.29;36.13;99901.19;10298586;28;20158;-58
2023/06/10 10:12:02;;;;;;;4.68;4.28;;;;;;;29.42;35.72;99904.34;10279231;28;19936;-60
2023/06/10 10:17:07;;;;;;;4.50;4.00;;;;;;;29.48;35.71;99905.25;10295395;28;20636;-60
2023/06/10 10:22:14;;;;;;;5.45;4.03;;;;;;;29.54;35.75;99901.47;10287809;28;20766;-60
2023/06/10 10:27:40;;;;;;;6.43;4.63;;;;;;;29.94;33.47;99897.50;10297748;28;20441;-61
2023/06/10 10:33:04;;;;;;;4.78;4.03;;;;;;;30.22;33.39;99898.28;10291345;28;20053;-60
2023/06/10 10:38:11;;;;;;;4.75;3.58;;;;;;;30.38;32.66;99884.66;10288815;28;20057;-60
2023/06/10 10:43:14;;;;;;;3.47;3.17;;;;;;;30.25;32.56;99885.94;10296199;28;20081;-60
2023/06/10 10:48:16;;;;;;;5.18;3.60;;;;;;;30.12;32.00;99898.22;10293197;28;20625;-59
2023/06/10 10:53:20;;;;;;;4.70;4.32;;;;;;;30.04;32.25;99885.81;10295346;28;20685;-60
2023/06/10 10:58:24;;;;;;;3.95;3.65;;;;;;;30.13;32.33;99886.13;10294029;28;20054;-66
2023/06/10 11:03:32;;;;;;;4.45;3.60;;;;;;;29.87;32.34;99869.44;10295895;28;20050;-59
2023/06/10 11:08:34;;;;;;;5.43;4.50;;;;;;;29.97;31.33;99868.72;10279377;28;20043;-60
2023/06/10 11:13:38;;;;;;;6.53;3.80;;;;;;;30.35;31.38;99871.47;10293909;28;20054;-60
2023/06/10 11:18:40;;;;;;;5.03;3.90;;;;;;;30.45;30.79;99852.34;10306505;28;20296;-58
2023/06/10 11:23:42;;;;;;;4.32;3.95;;;;;;;30.44;31.07;99859.75;10305922;28;20135;-58
2023/06/10 11:28:47;;;;;;;4.97;3.58;;;;;;;30.65;30.67;99857.13;10302972;28;20144;-59
2023/06/10 11:33:55;;;;;;;4.20;3.80;;;;;;;30.74;30.56;99854.72;10301913;28;20076;-58
2023/06/10 11:39:01;;;;;;;4.15;3.67;;;;;;;30.45;30.66;99855.09;10303281;28;20041;-59
2023/06/10 11:44:04;;;;;;;4.82;3.83;;;;;;;30.51;30.80;99845.81;10301235;28;20591;-59
2023/06/10 11:49:06;;;;;;;4.88;3.10;;;;;;;30.88;30.65;99844.88;10285708;28;20148;-59
2023/06/10 11:54:09;;;;;;;3.72;3.17;;;;;;;30.68;30.60;99854.66;10301840;28;20050;-59
2023/06/10 11:59:10;;;;;;;3.83;3.40;;;;;;;30.84;31.00;99854.75;10279859;28;20215;-59
2023/06/10 12:04:14;;;;;;;3.67;3.35;;;;;;;30.86;30.62;99855.31;10300381;28;20076;-58
2023/06/10 12:09:16;;;;;;;8.00;4.13;;;;;;;30.53;31.16;99854.59;10297975;28;20188;-59
2023/06/10 12:15:04;;;;;;;3.90;3.60;;;;;;;30.70;30.30;99850.84;10302849;28;20549;-58
2023/06/10 12:20:08;;;;;;;4.32;3.80;;;;;;;30.71;30.47;99833.28;10296292;28;20066;-59
2023/06/10 12:25:10;;;;;;;4.60;3.47;;;;;;;30.68;29.99;99846.44;10299365;28;20304;-59
2023/06/10 12:30:20;;;;;;;3.97;3.47;;;;;;;30.75;30.28;99823.41;10301153;28;20148;-58
2023/06/10 12:35:25;;;;;;;4.28;3.75;;;;;;;30.92;29.23;99818.50;10295508;28;20065;-57
2023/06/10 12:40:34;;;;;;;4.18;3.50;;;;;;;30.81;29.80;99820.41;10284384;28;20214;-58
2023/06/10 12:45:44;;;;;;;3.88;3.55;;;;;;;30.90;29.38;99820.72;10299738;28;20139;-58
2023/06/10 12:50:57;;;;;;;5.45;3.53;;;;;;;31.08;28.85;99821.34;10297173;28;20049;-58
2023/06/10 12:56:00;;;;;;;4.18;3.88;;;;;;;31.23;29.36;99815.91;10294146;28;20049;-57
2023/06/10 13:01:02;;;;;;;4.30;3.90;;;;;;;31.26;29.32;99817.28;10298316;28;20060;-57
2023/06/10 13:06:05;;;;;;;4.80;4.05;;;;;;;31.34;29.32;99809.31;10284654;28;20066;-57
2023/06/10 13:11:07;;;;;;;6.50;3.90;;;;;;;31.35;29.08;99815.66;10300246;28;20065;-58
2023/06/10 13:16:09;;;;;;;6.22;3.92;;;;;;;31.33;29.20;99807.69;10284917;28;20128;-57
2023/06/10 13:21:11;;;;;;;4.05;3.17;;;;;;;31.29;27.45;99800.25;10283606;28;20167;-57
2023/06/10 13:26:12;;;;;;;4.38;3.58;;;;;;;31.22;27.87;99799.69;10298542;28;20541;-58
2023/06/10 13:31:14;;;;;;;4.07;3.30;;;;;;;31.07;28.87;99795.78;10300047;28;20176;-58
2023/06/10 13:36:16;;;;;;;4.70;4.28;;;;;;;31.02;29.46;99802.09;10297361;28;20425;-58
2023/06/10 13:41:18;;;;;;;3.90;3.50;;;;;;;30.85;29.77;99790.47;10294696;28;20058;-58
2023/06/10 13:46:21;;;;;;;5.28;3.60;;;;;;;30.78;29.37;99800.91;10295694;28;20053;-58
2023/06/10 13:51:23;;;;;;;5.50;3.20;;;;;;;30.79;28.33;99792.38;10267862;28;21374;-57
2023/06/10 13:56:25;;;;;;;3.60;3.28;;;;;;;30.73;29.50;99785.22;10301319;28;20826;-57
2023/06/10 14:01:27;;;;;;;3.63;3.20;;;;;;;30.62;28.79;99778.84;10269647;28;20050;-58
2023/06/10 14:06:30;;;;;;;3.58;3.20;;;;;;;30.52;29.65;99773.28;10294256;28;20107;-57
2023/06/10 14:11:32;;;;;;;2.65;2.45;;;;;;;30.51;29.03;99782.66;10280887;28;20054;-58
2023/06/10 14:16:35;;;;;;;2.97;2.78;;;;;;;30.47;29.55;99767.78;10275732;28;20045;-58
2023/06/10 14:21:37;;;;;;;3.70;2.78;;;;;;;30.51;29.51;99771.66;10269554;28;20058;-57
2023/06/10 14:26:38;;;;;;;3.17;2.88;;;;;;;30.44;28.58;99765.59;10296310;28;20387;-57
2023/06/10 14:31:40;;;;;;;2.60;2.40;;;;;;;30.27;28.94;99758.34;10295762;28;20192;-58
2023/06/10 14:36:42;;;;;;;7.88;3.25;;;;;;;30.24;28.81;99758.06;10281812;28;20066;-58
2023/06/10 14:41:44;;;;;;;;;;;;;;;30.26;28.94;99764.91;10296966;28;20073;-58
2023/06/10 14:46:46;;;;;;;3.40;2.80;;;;;;;30.35;29.82;99753.44;10296080;28;19925;-58
2023/06/10 14:51:49;;;;;;;3.25;2.95;;;;;;;30.48;29.89;99758.47;10280118;28;20057;-58
2023/06/10 14:56:53;;;;;;;3.13;2.90;;;;;;;30.54;28.92;99760.16;10288808;28;20047;-62
2023/06/10 15:01:54;;;;;;;3.67;3.38;;;;;;;30.50;28.96;99753.53;10297755;28;20062;-60
2023/06/10 15:06:56;;;;;;;2.85;2.65;;;;;;;30.40;28.87;99750.69;10293807;28;20823;-60
2023/06/10 15:11:59;;;;;;;3.92;3.63;;;;;;;30.17;28.81;99744.56;10263880;28;20219;-60
2023/06/10 15:17:00;;;;;;;3.85;3.55;;;;;;;30.11;29.28;99748.38;10293784;28;20630;-60
2023/06/10 15:22:02;;;;;;;3.13;2.93;;;;;;;30.06;29.41;99737.38;10302753;28;20081;-60
2023/06/10 15:27:04;;;;;;;2.75;2.55;;;;;;;29.99;28.41;99729.34;10292256;28;20744;-60
2023/06/10 15:32:06;;;;;;;3.72;3.38;;;;;;;29.85;29.31;99728.19;10274371;28;20948;-60
2023/06/10 15:37:08;;;;;;;2.70;2.50;;;;;;;29.77;29.65;99724.81;10279961;28;20061;-60
2023/06/10 15:42:09;;;;;;;5.27;3.37;;;;;;;29.72;30.12;99726.69;10294938;28;20429;-59
2023/06/10 15:47:12;;;;;;;4.07;2.85;;;;;;;29.76;30.66;99725.06;10280593;28;20959;-58
2023/06/10 15:52:14;;;;;;;3.90;2.90;;;;;;;29.81;30.86;99722.38;10296922;28;20239;-59
2023/06/10 15:57:16;;;;;;;3.20;2.65;;;;;;;29.86;30.51;99725.19;10277337;28;20050;-58
2023/06/10 16:02:17;;;;;;;3.67;2.60;;;;;;;29.85;30.46;99723.50;10300533;28;20123;-60
2023/06/10 16:07:19;;;;;;;4.57;2.70;;;;;;;29.87;30.68;99718.59;10289164;28;20338;-59
2023/06/10 16:12:21;;;;;;;3.55;2.35;;;;;;;29.90;31.30;99719.97;10308932;28;20985;-59
2023/06/10 16:17:22;;;;;;;2.97;2.67;;;;;;;29.95;31.47;99714.50;10298465;28;20964;-59
2023/06/10 16:22:24;;;;;;;3.75;3.33;;;;;;;29.93;31.36;99717.50;10286477;28;20451;-59
2023/06/10 16:27:26;;;;;;;5.97;3.73;;;;;;;29.85;31.24;99718.03;10280969;28;20883;-60
2023/06/10 16:32:27;;;;;;;3.80;2.80;;;;;;;29.81;31.47;99725.13;10302058;28;20293;-58
2023/06/10 16:37:29;;;;;;;4.70;2.87;;;;;;;29.70;31.75;99706.94;10301871;28;20058;-58
2023/06/10 16:42:30;;;;;;;4.93;3.00;;;;;;;29.80;31.99;99731.69;10275750;28;20117;-58
2023/06/10 16:47:34;;;;;;;3.58;3.17;;;;;;;29.78;32.02;99726.44;10301003;28;20437;-59
2023/06/10 16:52:36;;;;;;;4.57;3.65;;;;;;;29.62;32.24;99731.00;10281483;28;20177;-59
2023/06/10 16:57:37;;;;;;;3.53;3.30;;;;;;;29.61;32.97;99732.09;10283722;28;20081;-59
2023/06/10 17:02:39;;;;;;;3.95;3.08;;;;;;;29.57;32.83;99736.44;10308520;28;20775;-59
2023/06/10 17:07:40;;;;;;;3.47;3.17;;;;;;;29.49;32.77;99734.19;10293018;28;21050;-59
2023/06/10 17:12:42;;;;;;;5.00;3.83;;;;;;;29.43;33.45;99744.28;10290688;28;22128;-59
2023/06/10 17:17:44;;;;;;;3.88;3.58;;;;;;;29.40;34.06;99743.97;10304614;28;20056;-59
2023/06/10 17:22:45;;;;;;;4.50;4.00;;;;;;;29.37;33.58;99755.47;10276563;28;20046;-60
2023/06/10 17:27:47;;;;;;;4.77;4.33;;;;;;;29.35;34.16;99752.16;10297552;28;20810;-59
2023/06/10 17:32:49;;;;;;;7.55;4.97;;;;;;;29.35;34.74;99771.31;10303198;28;20518;-58
2023/06/10 17:37:51;;;;;;;6.30;4.43;;;;;;;29.22;34.70;99776.16;10305539;28;20229;-59
2023/06/10 17:42:53;;;;;;;4.68;4.28;;;;;;;28.95;35.11;99780.78;10282571;28;20064;-60
2023/06/10 17:47:54;;;;;;;5.07;4.53;;;;;;;28.69;35.74;99794.13;10281219;28;20611;-59
2023/06/10 17:52:56;;;;;;;5.10;4.70;;;;;;;28.55;35.85;99797.25;10289844;28;20234;-63
2023/06/10 17:57:57;;;;;;;8.07;6.27;;;;;;;28.50;36.42;99799.91;10290342;28;20144;-59
2023/06/10 18:03:00;;;;;;;5.80;5.30;;;;;;;28.47;36.49;99811.34;10285050;28;20183;-59
2023/06/10 18:08:02;;;;;;;6.50;5.90;;;;;;;28.36;36.66;99815.06;10302213;28;20062;-60
2023/06/10 18:13:03;;;;;;;9.63;8.30;;;;;;;28.33;36.87;99819.13;10299526;28;20558;-60
2023/06/10 18:18:05;;;;;;;6.73;5.97;;;;;;;28.19;36.58;99823.28;10303153;28;20072;-59
2023/06/10 18:23:07;;;;;;;5.45;4.95;;;;;;;28.12;36.72;99823.44;10273911;28;20077;-59
2023/06/10 18:28:08;;;;;;;7.72;5.03;;;;;;;28.02;37.08;99834.22;10284476;28;20168;-58
2023/06/10 18:33:10;;;;;;;5.25;4.75;;;;;;;28.02;36.90;99839.69;10301769;28;20129;-58
2023/06/10 18:38:11;;;;;;;4.97;4.38;;;;;;;27.92;37.17;99848.53;10290256;28;20057;-59
2023/06/10 18:43:13;;;;;;;4.75;4.30;;;;;;;27.79;37.39;99844.22;10308478;28;20240;-59
2023/06/10 18:48:14;;;;;;;5.03;4.63;;;;;;;27.69;37.53;99846.78;10285037;28;20057;-63
2023/06/10 18:53:16;;;;;;;4.27;3.93;;;;;;;27.64;37.29;99857.63;10302058;28;20842;-59
2023/06/10 18:58:18;;;;;;;4.60;4.00;;;;;;;27.55;37.25;99865.41;10303045;28;20726;-58
2023/06/10 19:03:19;;;;;;;4.72;4.43;;;;;;;27.42;37.60;99868.44;10306460;28;20100;-57
2023/06/10 19:08:21;;;;;;;5.37;4.43;;;;;;;27.38;37.64;99872.72;10307386;28;20064;-58
2023/06/10 19:13:25;;;;;;;5.27;4.80;;;;;;;27.27;37.75;99883.41;10289791;28;20060;-58
2023/06/10 19:18:26;;;;;;;5.28;4.78;;;;;;;27.24;37.98;99883.09;10301945;28;20437;-58
2023/06/10 19:23:28;;;;;;;4.85;4.40;;;;;;;27.05;38.54;99885.97;10292086;28;20064;-58
2023/06/10 19:28:30;;;;;;;5.00;4.60;;;;;;;26.96;38.32;99887.41;10297258;28;20054;-58
2023/06/10 19:33:31;;;;;;;5.57;5.00;;;;;;;26.92;38.82;99897.19;10298240;28;20132;-58
2023/06/10 19:38:33;;;;;;;5.68;4.95;;;;;;;26.87;38.50;99905.25;10303468;28;21103;-59
2023/06/10 19:43:35;;;;;;;5.80;5.03;;;;;;;26.79;38.67;99901.81;10291689;28;20049;-63
2023/06/10 19:48:37;;;;;;;5.97;5.47;;;;;;;26.70;39.01;99905.97;10290307;28;20110;-58
2023/06/10 19:53:39;;;;;;;6.95;5.88;;;;;;;26.62;38.82;99903.59;10301570;28;20054;-58
2023/06/10 19:58:40;;;;;;;5.68;5.20;;;;;;;26.61;39.30;99918.28;10299617;28;20127;-58
2023/06/10 20:03:42;;;;;;;5.07;4.68;;;;;;;26.54;39.08;99917.56;10286859;28;20062;-58
2023/06/10 20:08:44;;;;;;;5.82;4.70;;;;;;;26.48;39.41;99919.34;10304521;28;20404;-59
2023/06/10 20:13:46;;;;;;;5.07;4.57;;;;;;;26.39;39.77;99929.81;10302827;28;20829;-58
2023/06/10 20:18:51;;;;;;;6.32;5.70;;;;;;;26.28;40.20;99934.16;10287839;28;20260;-58
2023/06/10 20:23:53;;;;;;;5.25;4.80;;;;;;;26.26;40.20;99944.50;10298097;28;20879;-55
2023/06/10 20:28:54;;;;;;;5.20;4.70;;;;;;;26.18;40.59;99941.25;10300595;28;20068;-56
2023/06/10 20:33:58;;;;;;;5.15;4.65;;;;;;;26.14;40.85;99949.09;10299843;28;20064;-56
2023/06/10 20:38:59;;;;;;;6.38;5.38;;;;;;;26.03;41.13;99956.19;10301740;28;20053;-56
2023/06/10 20:44:01;;;;;;;5.55;4.82;;;;;;;26.03;41.19;99967.09;10301177;28;20577;-55
2023/06/10 20:49:02;;;;;;;5.78;5.05;;;;;;;25.97;41.20;99950.78;10296703;28;20089;-56
2023/06/10 20:54:04;;;;;;;5.03;4.68;;;;;;;25.97;40.96;99962.50;10304070;28;20060;-56
2023/06/10 20:59:06;;;;;;;5.57;5.18;;;;;;;25.92;41.08;99974.13;10297322;28;20053;-56
2023/06/10 21:04:07;;;;;;;5.32;4.82;;;;;;;25.83;41.27;99977.41;10294441;28;20069;-56
2023/06/10 21:09:09;;;;;;;5.40;4.90;;;;;;;25.76;41.78;99983.78;10302869;28;20053;-57
2023/06/10 21:14:10;;;;;;;5.40;4.85;;;;;;;25.74;41.60;99977.72;10297624;28;20057;-56
2023/06/10 21:19:12;;;;;;;5.38;4.97;;;;;;;25.73;41.64;99980.69;10310042;28;20139;-56
2023/06/10 21:24:13;;;;;;;5.88;4.55;;;;;;;25.67;41.83;99979.72;10305124;28;20140;-56
2023/06/10 21:29:15;;;;;;;5.57;5.07;;;;;;;25.62;42.07;99982.28;10309660;28;20092;-56
2023/06/10 21:34:17;;;;;;;5.72;5.20;;;;;;;25.55;42.52;99987.84;10313205;28;20140;-56
2023/06/10 21:39:18;;;;;;;5.47;4.72;;;;;;;25.52;42.80;99988.31;10316715;28;20050;-56
2023/06/10 21:44:20;;;;;;;5.32;4.93;;;;;;;25.50;42.73;99981.41;10304650;28;20427;-56
2023/06/10 21:49:21;;;;;;;6.80;6.10;;;;;;;25.46;43.04;99986.50;10311586;28;20572;-56
2023/06/10 21:54:23;;;;;;;5.60;5.13;;;;;;;25.41;43.45;99987.16;10287758;28;20533;-56
2023/06/10 21:59:25;;;;;;;5.57;5.07;;;;;;;25.34;43.21;99985.56;10291105;28;20061;-56
2023/06/10 22:04:26;;;;;;;6.30;5.22;;;;;;;25.32;43.44;99988.53;10313905;28;20639;-57
2023/06/10 22:09:28;;;;;;;5.25;4.75;;;;;;;25.27;43.35;99999.25;10310623;28;20054;-57
2023/06/10 22:14:29;;;;;;;4.93;4.53;;;;;;;25.24;43.80;100003.25;10304737;28;20068;-56
2023/06/10 22:19:31;;;;;;;5.78;5.28;;;;;;;25.18;43.71;100009.59;10309599;28;20077;-56
2023/06/10 22:24:32;;;;;;;5.88;5.40;;;;;;;25.12;44.48;100015.13;10297990;28;20123;-55
2023/06/10 22:29:35;;;;;;;6.55;4.80;;;;;;;25.11;44.39;100013.47;10307545;28;20049;-57
2023/06/10 22:34:36;;;;;;;6.30;5.40;;;;;;;24.88;45.04;100012.22;10292668;28;20052;-56
2023/06/10 22:39:38;;;;;;;5.90;5.47;;;;;;;24.87;45.39;100024.16;10293457;28;20050;-56
2023/06/10 22:44:40;;;;;;;5.30;4.88;;;;;;;24.90;45.28;100026.41;10301496;28;20129;-56
2023/06/10 22:49:41;;;;;;;6.22;5.45;;;;;;;24.73;45.90;100026.16;10290042;28;20133;-55
2023/06/10 22:54:43;;;;;;;5.93;5.38;;;;;;;24.69;45.90;100027.66;10307490;28;20510;-56
2023/06/10 22:59:44;;;;;;;5.75;5.25;;;;;;;24.62;45.82;100014.13;10289201;28;20052;-56
2023/06/10 23:04:48;;;;;;;5.43;4.97;;;;;;;24.69;45.73;100028.47;10306659;28;20054;-56
2023/06/10 23:09:51;;;;;;;5.47;5.03;;;;;;;24.63;45.81;100023.91;10290365;28;20066;-55
2023/06/10 23:14:53;;;;;;;6.60;6.00;;;;;;;24.60;45.88;100037.16;10312287;28;20415;-56
2023/06/10 23:19:56;;;;;;;5.63;5.10;;;;;;;24.56;46.13;100033.16;10302641;28;20145;-57
2023/06/10 23:25:00;;;;;;;5.43;5.03;;;;;;;24.54;46.20;100036.09;10305957;28;20128;-56
2023/06/10 23:30:01;;;;;;;5.68;5.18;;;;;;;24.47;46.36;100038.88;10302683;28;20115;-56